CheckWX is a tool to help pilots better visualize weather data.  It is not intended as a substitute for an official pre-flight weather briefing.

02:30:12 UTC

KPAM METAR
Tyndall AFB Airport
Panama City, Florida, USA
Current

8 mins ago

KPAM 210222Z AUTO 01012G25KT 10SM OVC010 10/08 A3015 RMK AO2 RAB17E22 CIG 008V010 CIG 009 RWY32 SLP213 $
Observed
Feb-21 @ 02:22 UTC
Wind
  • 010° at 12 KTS
  • Gusting to 25 KTS
Visibility
10 SM
Flight Rules
MVFR
Cloud Levels
  • Overcast at 1,000' AGL
Temperature
10°C / 50°F
Dewpoint
C / 46°F
Humidity
88%
Altimeter
30.15" Hg
Pressure
1021.02 hPa
Previous

14 mins ago

KPAM 210216Z AUTO 02016G25KT 10SM OVC010 10/08 A3015 RMK AO2 CIG 008V010 CIG 007 RWY32 PRESRR SLP213 $
Observed
Feb-21 @ 02:16 UTC
Wind
  • 020° at 16 KTS
  • Gusting to 25 KTS
Visibility
10 SM
Flight Rules
MVFR
Cloud Levels
  • Overcast at 1,000' AGL
Temperature
10°C / 50°F
Dewpoint
C / 46°F
Humidity
88%
Altimeter
30.15" Hg
Pressure
1021.02 hPa
Previous

34 mins ago

KPAM 210156Z AUTO 02015G23KT 10SM OVC008 10/09 A3012 RMK AO2 RAE05DZB05E07 CIG 007 RWY32 SLP203 P0000 T01020088 $
Observed
Feb-21 @ 01:56 UTC
Wind
  • 020° at 15 KTS
  • Gusting to 23 KTS
Visibility
10 SM
Flight Rules
IFR
Cloud Levels
  • Overcast at 800' AGL
Temperature
10°C / 50°F
Dewpoint
C / 48°F
Humidity
94%
Altimeter
30.12" Hg
Pressure
1020.02 hPa
Current Rain
0.01"